Time;durP1;ratioP1;P1;durP2;ratioP2;P2;SDS_P1;SDS_P2;PMS_P1;PMS_P2;Temp;Humidity;BMP_temperature;BMP_pressure;BME280_temperature;BME280_humidity;BME280_pressure;Samples;Min_cycle;Max_cycle;Signal;HPM_P1;HPM_P2
2024/02/10 00:02:10;;;;;;;14.55;4.00;;;;;;;10.56;100.00;98367.41;10376345;28;20029;-73
2024/02/10 00:07:12;;;;;;;8.05;3.75;;;;;;;10.66;100.00;98371.03;10373628;28;20061;-73
2024/02/10 00:12:12;;;;;;;9.25;4.82;;;;;;;10.73;100.00;98376.22;10389927;28;20065;-72
2024/02/10 00:17:15;;;;;;;4.20;3.10;;;;;;;10.78;100.00;98375.41;10374367;28;20056;-73
2024/02/10 00:22:16;;;;;;;8.02;4.15;;;;;;;10.81;100.00;98370.28;10375102;28;20109;-73
2024/02/10 00:27:17;;;;;;;6.15;3.78;;;;;;;10.85;100.00;98366.00;10375610;28;20046;-74
2024/02/10 00:32:18;;;;;;;4.40;3.67;;;;;;;10.88;100.00;98359.22;10377003;28;20109;-72
2024/02/10 00:37:18;;;;;;;7.95;4.00;;;;;;;10.96;100.00;98366.88;10381944;28;20231;-72
2024/02/10 00:42:18;;;;;;;9.85;3.65;;;;;;;10.93;100.00;98365.50;10382863;28;20030;-72
2024/02/10 00:47:20;;;;;;;8.52;3.20;;;;;;;10.81;100.00;98367.59;10399435;28;20583;-72
2024/02/10 00:52:21;;;;;;;12.75;3.60;;;;;;;10.74;100.00;98361.59;10365284;28;20042;-73
2024/02/10 00:57:21;;;;;;;4.63;3.00;;;;;;;10.67;100.00;98361.00;10415357;28;20033;-73
2024/02/10 01:02:22;;;;;;;11.63;4.53;;;;;;;10.61;100.00;98359.34;10382717;28;20446;-73
2024/02/10 01:07:24;;;;;;;8.15;3.33;;;;;;;10.50;100.00;98368.44;10382855;28;20046;-72
2024/02/10 01:12:25;;;;;;;7.55;3.03;;;;;;;10.54;100.00;98370.38;10380761;28;20037;-71
2024/02/10 01:17:26;;;;;;;2.22;1.98;;;;;;;10.45;100.00;98372.75;10380710;28;20044;-73
2024/02/10 01:22:26;;;;;;;3.60;3.28;;;;;;;10.48;100.00;98371.41;10379743;28;20164;-70
2024/02/10 01:27:27;;;;;;;7.72;2.95;;;;;;;10.43;100.00;98371.38;10380597;28;20046;-71
2024/02/10 01:32:27;;;;;;;6.60;2.58;;;;;;;10.41;100.00;98382.47;10379736;28;20042;-70
2024/02/10 01:37:28;;;;;;;5.45;2.88;;;;;;;10.34;100.00;98376.47;10380556;28;20061;-72
2024/02/10 01:42:37;;;;;;;4.50;2.20;;;;;;;10.39;100.00;98373.78;10411073;28;20041;-70
2024/02/10 01:47:38;;;;;;;5.10;3.88;;;;;;;10.34;100.00;98381.03;10378981;28;20034;-72
2024/02/10 01:52:39;;;;;;;5.32;2.72;;;;;;;10.33;100.00;98371.28;10361233;28;20049;-70
2024/02/10 01:57:39;;;;;;;7.93;3.00;;;;;;;10.34;100.00;98381.03;10378304;28;20493;-71
2024/02/10 02:02:40;;;;;;;3.08;2.22;;;;;;;10.43;100.00;98384.91;10375944;28;20037;-69
2024/02/10 02:07:41;;;;;;;4.45;2.83;;;;;;;10.38;100.00;98385.69;10378306;28;20069;-71
2024/02/10 02:12:48;;;;;;;4.18;2.53;;;;;;;10.44;100.00;98381.94;10359773;28;20046;-73
2024/02/10 02:17:49;;;;;;;2.75;2.22;;;;;;;10.48;100.00;98377.66;10377467;28;20096;-73
2024/02/10 02:22:53;;;;;;;3.88;2.45;;;;;;;10.50;100.00;98376.56;10378450;28;20057;-72
2024/02/10 02:27:56;;;;;;;6.70;3.53;;;;;;;10.41;100.00;98384.34;10376054;28;20036;-72
2024/02/10 02:32:57;;;;;;;17.85;3.13;;;;;;;10.25;100.00;98375.25;10375723;28;20038;-72
2024/02/10 02:37:59;;;;;;;11.27;3.03;;;;;;;10.25;100.00;98375.25;10376868;28;20034;-70
2024/02/10 02:43:03;;;;;;;5.60;3.08;;;;;;;10.24;100.00;98371.75;10375609;28;20378;-71
2024/02/10 02:48:03;;;;;;;6.38;2.63;;;;;;;10.25;100.00;98369.84;10375289;28;20034;-76
2024/02/10 02:53:04;;;;;;;2.83;2.63;;;;;;;10.01;100.00;98370.16;10375109;28;20067;-73
2024/02/10 02:58:09;;;;;;;5.43;2.28;;;;;;;10.09;100.00;98359.97;10374720;28;20088;-69
2024/02/10 03:03:09;;;;;;;8.80;3.42;;;;;;;10.09;100.00;98370.78;10375592;28;20033;-72
2024/02/10 03:08:10;;;;;;;3.35;2.40;;;;;;;10.05;100.00;98373.19;10376453;28;20052;-72
2024/02/10 03:13:10;;;;;;;4.60;3.13;;;;;;;10.02;100.00;98357.47;10373614;28;20061;-71
2024/02/10 03:18:12;;;;;;;9.25;3.50;;;;;;;9.94;100.00;98358.75;10375281;28;20069;-71
2024/02/10 03:23:13;;;;;;;9.52;2.95;;;;;;;9.99;100.00;98366.09;10374142;28;20049;-71
2024/02/10 03:28:15;;;;;;;11.18;4.20;;;;;;;10.07;100.00;98362.13;10405551;28;20470;-70
2024/02/10 03:33:16;;;;;;;5.53;3.30;;;;;;;10.05;100.00;98361.53;10405915;28;20045;-72
2024/02/10 03:38:17;;;;;;;10.80;4.20;;;;;;;10.09;100.00;98357.28;10374344;28;20126;-71
2024/02/10 03:43:25;;;;;;;11.60;3.70;;;;;;;10.09;100.00;98366.19;10375388;28;20076;-72
2024/02/10 03:48:26;;;;;;;4.75;3.47;;;;;;;10.14;100.00;98368.13;10374766;28;20034;-70
2024/02/10 03:53:26;;;;;;;4.72;3.53;;;;;;;10.14;100.00;98363.53;10376492;28;20038;-71
2024/02/10 03:58:27;;;;;;;8.23;4.13;;;;;;;10.16;100.00;98363.28;10372914;28;20078;-71
2024/02/10 04:03:27;;;;;;;10.48;4.60;;;;;;;10.10;100.00;98367.81;10372860;28;20116;-71
2024/02/10 04:08:28;;;;;;;4.75;3.58;;;;;;;10.11;100.00;98365.94;10372007;28;20065;-70
2024/02/10 04:13:29;;;;;;;4.03;3.40;;;;;;;10.11;100.00;98369.44;10372408;28;20068;-72
2024/02/10 04:18:29;;;;;;;9.27;4.15;;;;;;;10.10;100.00;98375.94;10373556;28;20539;-72
2024/02/10 04:23:32;;;;;;;4.47;3.22;;;;;;;10.15;100.00;98375.19;10373328;28;20129;-72
2024/02/10 04:28:35;;;;;;;4.13;3.13;;;;;;;10.17;100.00;98384.66;10355674;28;20030;-71
2024/02/10 04:33:36;;;;;;;6.00;3.65;;;;;;;10.25;100.00;98376.06;10371844;28;20030;-72
2024/02/10 04:38:36;;;;;;;8.38;4.50;;;;;;;10.28;100.00;98374.78;10373041;28;20034;-72
2024/02/10 04:43:36;;;;;;;3.63;3.33;;;;;;;10.26;100.00;98382.31;10372507;28;20061;-71
2024/02/10 04:48:37;;;;;;;5.97;4.10;;;;;;;10.15;100.00;98367.88;10372586;28;20049;-72
2024/02/10 04:53:37;;;;;;;6.45;3.60;;;;;;;10.13;100.00;98378.13;10372614;28;20034;-72
2024/02/10 04:58:37;;;;;;;5.97;3.80;;;;;;;10.07;100.00;98383.75;10372675;28;20114;-73
2024/02/10 05:03:41;;;;;;;7.35;3.35;;;;;;;10.04;100.00;98379.66;10373706;28;20488;-72
2024/02/10 05:08:41;;;;;;;4.82;3.17;;;;;;;10.04;100.00;98395.06;10373202;28;20123;-72
2024/02/10 05:13:42;;;;;;;3.15;2.90;;;;;;;9.97;100.00;98385.28;10372826;28;20081;-72
2024/02/10 05:18:42;;;;;;;4.93;3.88;;;;;;;9.91;100.00;98391.69;10375758;28;20385;-73
2024/02/10 05:23:45;;;;;;;7.65;4.25;;;;;;;9.95;100.00;98405.53;10414111;28;20053;-72
2024/02/10 05:28:47;;;;;;;4.30;3.17;;;;;;;10.01;100.00;98409.91;10385789;28;20037;-72
2024/02/10 05:33:48;;;;;;;5.95;3.03;;;;;;;9.91;100.00;98407.91;10387025;28;20109;-72
2024/02/10 05:38:49;;;;;;;8.55;3.45;;;;;;;9.94;100.00;98412.00;10418119;28;20054;-70
2024/02/10 05:43:52;;;;;;;7.15;3.70;;;;;;;10.07;100.00;98416.19;10383601;28;20038;-73
2024/02/10 05:48:52;;;;;;;4.05;3.65;;;;;;;10.09;100.00;98414.88;10382535;28;20034;-75
2024/02/10 05:53:53;;;;;;;2.65;2.45;;;;;;;10.08;100.00;98417.81;10383849;28;20350;-73
2024/02/10 05:58:53;;;;;;;11.07;3.65;;;;;;;10.09;100.00;98422.16;10415547;28;20069;-72
2024/02/10 06:03:54;;;;;;;3.65;3.35;;;;;;;10.00;100.00;98425.31;10386946;28;20060;-72
2024/02/10 06:08:55;;;;;;;10.13;4.45;;;;;;;10.12;100.00;98433.28;10387551;28;20485;-74
2024/02/10 06:13:55;;;;;;;4.32;3.67;;;;;;;10.17;100.00;98448.75;10385795;28;20053;-72
2024/02/10 06:18:58;;;;;;;15.18;3.20;;;;;;;10.10;100.00;98448.94;10386369;28;20034;-73
2024/02/10 06:24:00;;;;;;;7.68;3.63;;;;;;;10.09;100.00;98446.50;10381876;28;20060;-73
2024/02/10 06:29:00;;;;;;;4.43;4.00;;;;;;;10.05;100.00;98458.88;10380121;28;20042;-74
2024/02/10 06:34:01;;;;;;;9.07;4.00;;;;;;;10.05;100.00;98454.31;10381197;28;20532;-73
2024/02/10 06:39:01;;;;;;;6.30;3.35;;;;;;;9.86;100.00;98455.69;10381528;28;20042;-73
2024/02/10 06:44:07;;;;;;;10.90;4.25;;;;;;;9.77;100.00;98466.16;10384866;28;20034;-72
2024/02/10 06:49:07;;;;;;;3.43;2.80;;;;;;;9.74;100.00;98477.47;10385739;28;20034;-73
2024/02/10 06:54:10;;;;;;;6.45;3.30;;;;;;;9.81;100.00;98478.09;10387361;28;20355;-73
2024/02/10 06:59:11;;;;;;;11.50;5.57;;;;;;;9.83;100.00;98486.78;10384798;28;20034;-73
2024/02/10 07:04:13;;;;;;;6.03;4.05;;;;;;;9.88;100.00;98489.53;10399984;28;20117;-72
2024/02/10 07:09:14;;;;;;;13.95;3.60;;;;;;;9.95;100.00;98503.66;10386495;28;20383;-72
2024/02/10 07:14:20;;;;;;;8.30;3.70;;;;;;;9.98;100.00;98502.34;10402947;28;20053;-73
2024/02/10 07:19:21;;;;;;;4.53;3.67;;;;;;;9.99;100.00;98504.00;10385849;28;20049;-73
2024/02/10 07:24:23;;;;;;;7.00;3.90;;;;;;;10.03;100.00;98502.41;10381299;28;20038;-73
2024/02/10 07:29:26;;;;;;;7.25;3.53;;;;;;;10.12;100.00;98502.78;10380854;28;20390;-72
2024/02/10 07:34:29;;;;;;;9.05;4.28;;;;;;;10.14;100.00;98506.03;10379695;28;20359;-72
2024/02/10 07:39:29;;;;;;;6.03;2.80;;;;;;;10.16;100.00;98522.84;10381218;28;20037;-74
2024/02/10 07:44:29;;;;;;;4.80;3.17;;;;;;;10.17;100.00;98517.16;10414931;28;20115;-73
2024/02/10 07:49:30;;;;;;;7.97;4.82;;;;;;;10.21;100.00;98520.16;10387299;28;20029;-71
2024/02/10 07:54:32;;;;;;;15.20;4.22;;;;;;;10.11;100.00;98530.88;10386077;28;20072;-73
2024/02/10 07:59:33;;;;;;;4.15;3.75;;;;;;;10.33;100.00;98533.59;10385215;28;20058;-71
2024/02/10 08:04:33;;;;;;;7.28;3.63;;;;;;;10.59;100.00;98532.81;10382478;28;20037;-72
2024/02/10 08:09:33;;;;;;;9.02;4.28;;;;;;;10.75;100.00;98531.03;10376847;28;20064;-73
2024/02/10 08:14:36;;;;;;;7.70;4.15;;;;;;;11.00;100.00;98533.16;10409117;28;20058;-74
2024/02/10 08:19:36;;;;;;;9.60;5.90;;;;;;;11.37;100.00;98538.59;10377862;28;20042;-72
2024/02/10 08:24:39;;;;;;;9.73;5.38;;;;;;;11.61;100.00;98546.31;10377894;28;20113;-71
2024/02/10 08:29:42;;;;;;;8.30;4.15;;;;;;;11.74;100.00;98559.44;10376384;28;20064;-72
2024/02/10 08:34:42;;;;;;;9.95;4.43;;;;;;;11.73;100.00;98565.13;10406018;28;20084;-75
2024/02/10 08:39:44;;;;;;;10.13;6.18;;;;;;;11.70;100.00;98562.94;10372719;28;20038;-72
2024/02/10 08:44:45;;;;;;;6.78;5.30;;;;;;;11.34;100.00;98581.66;10388379;28;20069;-73
2024/02/10 08:49:49;;;;;;;6.47;5.60;;;;;;;11.11;100.00;98566.59;10373470;28;20046;-72
2024/02/10 08:54:49;;;;;;;8.15;5.45;;;;;;;11.30;100.00;98581.38;10376439;28;20105;-73
2024/02/10 08:59:51;;;;;;;4.75;4.32;;;;;;;11.33;100.00;98582.75;10395815;28;20049;-73
2024/02/10 09:04:53;;;;;;;8.57;5.15;;;;;;;11.28;100.00;98588.09;10379956;28;20485;-73
2024/02/10 09:09:53;;;;;;;8.95;4.95;;;;;;;10.99;100.00;98599.25;10378777;28;20030;-73
2024/02/10 09:14:54;;;;;;;13.73;5.55;;;;;;;10.74;100.00;98602.50;10381551;28;20066;-72
2024/02/10 09:19:54;;;;;;;5.03;4.63;;;;;;;10.61;100.00;98617.25;10380504;28;20165;-72
2024/02/10 09:24:55;;;;;;;6.25;4.72;;;;;;;10.67;100.00;98604.59;10411715;28;20045;-72
2024/02/10 09:29:56;;;;;;;5.32;4.82;;;;;;;10.71;100.00;98617.34;10380349;28;20065;-72
2024/02/10 09:34:57;;;;;;;6.07;5.47;;;;;;;10.68;100.00;98615.16;10379721;28;20504;-72
2024/02/10 09:39:58;;;;;;;7.22;5.00;;;;;;;10.59;100.00;98621.28;10379703;28;20042;-73
2024/02/10 09:44:58;;;;;;;9.52;4.90;;;;;;;10.62;100.00;98620.78;10379552;28;20038;-73
2024/02/10 09:50:02;;;;;;;5.20;4.75;;;;;;;10.73;100.00;98608.19;10380179;28;20525;-74
2024/02/10 09:55:05;;;;;;;8.13;4.65;;;;;;;10.92;100.00;98610.28;10396765;28;20033;-72
2024/02/10 10:00:06;;;;;;;3.72;3.28;;;;;;;11.10;100.00;98610.97;10363359;28;20037;-74
2024/02/10 10:05:07;;;;;;;7.03;4.45;;;;;;;11.10;100.00;98614.53;10378264;28;20029;-76
2024/02/10 10:10:08;;;;;;;7.60;5.10;;;;;;;11.29;100.00;98612.22;10377838;28;20397;-74
2024/02/10 10:15:09;;;;;;;5.38;3.58;;;;;;;11.44;100.00;98608.81;10380192;28;20058;-73
2024/02/10 10:20:09;;;;;;;7.28;5.22;;;;;;;11.86;100.00;98614.28;10379606;28;20033;-72
2024/02/10 10:25:10;;;;;;;5.40;4.13;;;;;;;12.50;100.00;98618.69;10395061;28;20033;-73
2024/02/10 10:30:11;;;;;;;4.90;4.47;;;;;;;12.59;100.00;98616.28;10409915;28;20042;-72
2024/02/10 10:35:12;;;;;;;5.65;3.88;;;;;;;12.64;100.00;98618.22;10360408;28;20034;-73
2024/02/10 10:40:13;;;;;;;6.00;3.83;;;;;;;12.81;100.00;98624.22;10376876;28;20034;-73
2024/02/10 10:45:13;;;;;;;4.30;3.95;;;;;;;12.98;100.00;98621.25;10375604;28;20076;-72
2024/02/10 10:50:14;;;;;;;4.70;4.07;;;;;;;13.26;100.00;98617.25;10375185;28;20041;-71
2024/02/10 10:55:17;;;;;;;10.90;4.68;;;;;;;13.18;100.00;98610.44;10408589;28;20056;-72
2024/02/10 11:00:21;;;;;;;4.75;4.03;;;;;;;13.01;100.00;98626.16;10377343;28;20125;-74
2024/02/10 11:05:23;;;;;;;9.52;3.72;;;;;;;13.40;100.00;98617.50;10374406;28;20034;-73
2024/02/10 11:10:40;;;;;;;7.50;3.78;;;;;;;14.01;100.00;98612.03;10374673;28;20045;-73
2024/02/10 11:15:41;;;;;;;3.58;3.30;;;;;;;13.99;100.00;98595.16;10373142;28;20091;-73
2024/02/10 11:20:41;;;;;;;3.40;3.20;;;;;;;14.00;100.00;98598.69;10374605;28;20034;-73
2024/02/10 11:25:42;;;;;;;6.43;5.53;;;;;;;13.93;100.00;98604.41;10373301;28;20132;-73
2024/02/10 11:30:43;;;;;;;7.20;4.13;;;;;;;13.65;100.00;98592.22;10389687;28;20362;-74
2024/02/10 11:35:46;;;;;;;7.20;3.90;;;;;;;13.59;100.00;98602.31;10375255;28;20446;-72
2024/02/10 11:40:47;;;;;;;3.20;3.00;;;;;;;13.61;100.00;98596.56;10374651;28;20124;-72
2024/02/10 11:45:49;;;;;;;4.03;3.63;;;;;;;13.81;100.00;98596.53;10372235;28;20117;-73
2024/02/10 11:50:49;;;;;;;4.07;3.60;;;;;;;13.98;100.00;98587.28;10373396;28;20040;-71
2024/02/10 11:55:50;;;;;;;5.45;4.88;;;;;;;13.77;100.00;98590.03;10373734;28;20543;-71
2024/02/10 12:00:50;;;;;;;5.80;4.80;;;;;;;13.35;100.00;98582.19;10372262;28;20048;-72
2024/02/10 12:05:51;;;;;;;14.98;8.70;;;;;;;13.22;100.00;98584.34;10405443;28;20052;-74
2024/02/10 12:10:52;;;;;;;5.93;3.97;;;;;;;13.23;100.00;98582.44;10373737;28;20053;-73
2024/02/10 12:15:59;;;;;;;4.22;3.83;;;;;;;13.37;100.00;98583.56;10373104;28;20097;-73
2024/02/10 12:20:59;;;;;;;7.00;3.83;;;;;;;13.53;100.00;98592.53;10372648;28;20038;-73
2024/02/10 12:26:02;;;;;;;4.85;4.43;;;;;;;13.58;100.00;98587.06;10372178;28;20478;-73
2024/02/10 12:31:02;;;;;;;5.45;5.05;;;;;;;13.64;100.00;98588.69;10371650;28;20037;-74
2024/02/10 12:36:03;;;;;;;5.57;5.07;;;;;;;13.53;100.00;98595.25;10373397;28;20131;-73
2024/02/10 12:41:04;;;;;;;6.63;4.97;;;;;;;13.45;100.00;98596.59;10404386;28;20034;-73
2024/02/10 12:46:05;;;;;;;10.73;5.13;;;;;;;13.34;100.00;98589.53;10372368;28;20057;-73
2024/02/10 12:51:05;;;;;;;8.48;4.68;;;;;;;13.24;100.00;98597.63;10372413;28;20052;-72
2024/02/10 12:56:06;;;;;;;10.65;4.70;;;;;;;13.49;100.00;98602.28;10371729;28;20140;-72
2024/02/10 13:01:07;;;;;;;9.82;5.40;;;;;;;13.53;100.00;98602.56;10372187;28;20172;-72
2024/02/10 13:06:11;;;;;;;6.72;4.43;;;;;;;13.61;100.00;98591.13;10403901;28;20559;-73
2024/02/10 13:11:11;;;;;;;8.75;5.22;;;;;;;13.61;100.00;98597.38;10372884;28;20041;-71
2024/02/10 13:16:12;;;;;;;6.53;5.18;;;;;;;13.69;100.00;98579.72;10371766;28;20474;-76
2024/02/10 13:21:16;;;;;;;4.32;3.92;;;;;;;13.66;100.00;98581.06;10354168;28;20038;-75
2024/02/10 13:26:18;;;;;;;9.70;7.63;;;;;;;13.88;100.00;98579.94;10355257;28;20370;-73
2024/02/10 13:31:20;;;;;;;9.55;6.30;;;;;;;13.95;100.00;98583.19;10403186;28;20128;-76
2024/02/10 13:36:21;;;;;;;6.78;6.05;;;;;;;13.72;100.00;98582.69;10369716;28;20519;-72
2024/02/10 14:03:00;;;;;;;6.93;5.85;;;;;;;13.56;100.00;98570.22;10378110;28;20073;-72
2024/02/10 14:13:18;;;;;;;7.80;6.80;;;;;;;13.39;100.00;98561.53;10378483;28;20042;-72
2024/02/10 14:18:25;;;;;;;7.93;6.85;;;;;;;13.42;100.00;98561.78;10378613;28;20447;-75
2024/02/10 14:23:25;;;;;;;10.23;5.68;;;;;;;13.25;100.00;98567.50;10395972;28;20038;-74
2024/02/10 14:28:38;;;;;;;11.98;6.80;;;;;;;13.13;100.00;98564.22;10377765;28;20033;-74
2024/02/10 14:33:41;;;;;;;8.38;6.93;;;;;;;13.03;100.00;98570.47;10409031;28;20470;-75
2024/02/10 14:39:06;;;;;;;7.38;6.57;;;;;;;12.88;100.00;98583.22;10376492;28;20086;-73
2024/02/10 14:44:08;;;;;;;9.60;8.30;;;;;;;12.46;100.00;98579.59;10377007;28;20033;-75
2024/02/10 14:49:09;;;;;;;12.73;6.88;;;;;;;12.35;100.00;98580.66;10392545;28;20041;-72
2024/02/10 14:54:10;;;;;;;9.43;6.25;;;;;;;12.29;100.00;98581.69;10374169;28;20041;-72
2024/02/10 14:59:10;;;;;;;6.30;5.75;;;;;;;12.20;100.00;98594.97;10373999;28;20065;-76
2024/02/10 15:04:11;;;;;;;5.80;5.35;;;;;;;12.14;100.00;98595.19;10376201;28;20045;-72
2024/02/10 15:09:11;;;;;;;6.45;4.80;;;;;;;12.23;100.00;98604.47;10380891;28;20033;-73
2024/02/10 15:14:11;;;;;;;7.22;5.57;;;;;;;12.21;100.00;98603.91;10379082;28;20115;-76
2024/02/10 15:19:12;;;;;;;8.20;6.22;;;;;;;12.17;100.00;98610.94;10378830;28;20481;-74
2024/02/10 15:24:12;;;;;;;6.25;5.65;;;;;;;12.14;100.00;98601.44;10377402;28;20040;-74
2024/02/10 15:29:13;;;;;;;7.40;5.82;;;;;;;12.03;100.00;98600.56;10376999;28;20119;-75
2024/02/10 15:34:13;;;;;;;12.02;4.43;;;;;;;12.02;100.00;98595.41;10374445;28;20125;-72
2024/02/10 15:39:16;;;;;;;9.35;6.60;;;;;;;12.06;100.00;98596.50;10375989;28;20038;-72
2024/02/10 15:44:16;;;;;;;9.07;6.88;;;;;;;12.01;100.00;98594.59;10377666;28;20075;-72
2024/02/10 15:49:19;;;;;;;10.63;5.57;;;;;;;12.06;100.00;98593.78;10375494;28;20057;-71
2024/02/10 15:54:20;;;;;;;9.85;6.53;;;;;;;12.02;100.00;98598.13;10373863;28;20108;-70
2024/02/10 15:59:20;;;;;;;8.05;5.85;;;;;;;12.01;100.00;98608.16;10374717;28;20099;-76
2024/02/10 16:04:21;;;;;;;6.65;6.18;;;;;;;11.83;100.00;98600.41;10371747;28;20045;-72
2024/02/10 16:09:23;;;;;;;11.00;7.45;;;;;;;11.73;100.00;98605.78;10374575;28;20057;-72
2024/02/10 16:14:27;;;;;;;8.20;7.40;;;;;;;11.62;100.00;98599.47;10373056;28;20157;-71
2024/02/10 16:19:28;;;;;;;7.63;6.53;;;;;;;11.56;100.00;98608.66;10372329;28;20042;-72
2024/02/10 16:24:28;;;;;;;8.52;6.20;;;;;;;11.48;100.00;98601.00;10389220;28;20335;-72
2024/02/10 16:29:28;;;;;;;9.05;7.47;;;;;;;11.48;100.00;98601.81;10371528;28;20088;-72
2024/02/10 16:34:29;;;;;;;9.77;8.18;;;;;;;11.46;100.00;98600.44;10373672;28;20410;-71
2024/02/10 16:39:30;;;;;;;9.10;7.78;;;;;;;11.40;100.00;98602.31;10371410;28;20042;-73
2024/02/10 16:44:30;;;;;;;9.32;8.38;;;;;;;11.38;100.00;98602.53;10370882;28;20405;-73
2024/02/10 16:49:32;;;;;;;11.73;7.00;;;;;;;11.28;100.00;98601.66;10404196;28;20085;-71
2024/02/10 16:54:33;;;;;;;9.45;8.55;;;;;;;11.24;100.00;98595.94;10373726;28;20030;-71
2024/02/10 16:59:33;;;;;;;10.30;8.65;;;;;;;11.27;100.00;98603.56;10372509;28;20474;-74
2024/02/10 17:04:35;;;;;;;9.90;7.95;;;;;;;11.24;100.00;98612.19;10372360;28;20034;-72
2024/02/10 17:09:35;;;;;;;12.90;10.93;;;;;;;11.29;100.00;98609.50;10372147;28;20030;-71
2024/02/10 17:14:36;;;;;;;14.60;9.48;;;;;;;11.29;100.00;98614.94;10375059;28;20102;-72
2024/02/10 17:19:37;;;;;;;14.63;8.80;;;;;;;11.21;100.00;98614.59;10379894;28;20054;-73
2024/02/10 17:24:37;;;;;;;11.10;9.35;;;;;;;11.24;100.00;98624.94;10380559;28;20121;-72
2024/02/10 17:29:38;;;;;;;17.02;9.18;;;;;;;11.17;100.00;98614.31;10379992;28;20033;-73
2024/02/10 17:34:40;;;;;;;11.38;7.78;;;;;;;11.18;100.00;98624.06;10378467;28;20534;-71
2024/02/10 17:39:40;;;;;;;16.83;10.55;;;;;;;11.08;100.00;98621.25;10378241;28;20044;-73
2024/02/10 17:44:45;;;;;;;12.43;11.18;;;;;;;11.08;100.00;98627.50;10377570;28;20041;-72
2024/02/10 17:49:46;;;;;;;13.40;11.18;;;;;;;11.00;100.00;98629.84;10377159;28;20034;-71
2024/02/10 17:54:46;;;;;;;14.57;9.52;;;;;;;11.03;100.00;98629.31;10360883;28;20108;-73
2024/02/10 17:59:46;;;;;;;14.68;9.93;;;;;;;11.04;100.00;98639.06;10377642;28;20045;-73
2024/02/10 18:04:49;;;;;;;13.93;11.13;;;;;;;11.05;100.00;98629.91;10376812;28;20030;-71
2024/02/10 18:09:51;;;;;;;20.02;10.90;;;;;;;11.05;100.00;98646.16;10361194;28;20086;-71
2024/02/10 18:14:51;;;;;;;10.73;9.63;;;;;;;11.04;100.00;98639.06;10379298;28;20037;-71
2024/02/10 18:19:51;;;;;;;12.05;10.73;;;;;;;11.02;100.00;98636.63;10377200;28;20054;-71
2024/02/10 18:24:52;;;;;;;11.27;10.15;;;;;;;10.87;100.00;98636.47;10376460;28;20331;-71
2024/02/10 18:29:54;;;;;;;16.80;11.60;;;;;;;10.77;100.00;98634.47;10376037;28;20099;-72
2024/02/10 18:34:54;;;;;;;12.70;11.27;;;;;;;10.71;100.00;98640.91;10375956;28;20045;-71
2024/02/10 18:39:55;;;;;;;11.35;9.45;;;;;;;10.67;100.00;98640.59;10377617;28;20040;-71
2024/02/10 18:44:55;;;;;;;14.30;12.25;;;;;;;10.56;100.00;98648.84;10377426;28;20069;-71
2024/02/10 18:49:56;;;;;;;16.05;11.95;;;;;;;10.50;100.00;98647.16;10376752;28;20042;-70
2024/02/10 18:54:57;;;;;;;11.52;10.10;;;;;;;10.51;100.00;98648.81;10376573;28;20461;-72
2024/02/10 18:59:58;;;;;;;12.27;11.00;;;;;;;10.44;100.00;98643.59;10378321;28;20045;-71
2024/02/10 19:05:01;;;;;;;13.57;12.18;;;;;;;10.45;100.00;98651.44;10377623;28;20064;-71
2024/02/10 19:10:06;;;;;;;15.82;12.65;;;;;;;10.44;100.00;98644.41;10376460;28;20038;-71
2024/02/10 19:15:07;;;;;;;18.80;14.60;;;;;;;10.35;100.00;98640.50;10376913;28;20042;-70
2024/02/10 19:20:11;;;;;;;16.02;13.32;;;;;;;10.34;100.00;98648.84;10375459;28;20045;-71
2024/02/10 19:25:15;;;;;;;25.35;15.05;;;;;;;10.37;100.00;98646.47;10374542;28;20462;-71
2024/02/10 19:30:16;;;;;;;26.05;14.48;;;;;;;10.33;100.00;98639.09;10377962;28;20121;-70
2024/02/10 19:35:19;;;;;;;1.65;1.65;;;;;;;10.30;100.00;98643.13;10378550;28;20040;-71
2024/02/10 19:40:20;;;;;;;0.70;0.70;;;;;;;10.25;100.00;98638.44;10377403;28;20037;-69
2024/02/10 19:45:25;;;;;;;0.70;0.70;;;;;;;10.25;100.00;98640.34;10390461;28;20529;-69
2024/02/10 19:50:26;;;;;;;5.93;2.75;;;;;;;10.29;100.00;98638.78;10374745;28;20033;-71
2024/02/10 19:55:27;;;;;;;1.55;1.55;;;;;;;10.30;100.00;98643.13;10375635;28;20034;-72
2024/02/10 20:00:28;;;;;;;1.35;1.35;;;;;;;10.31;100.00;98642.06;10376017;28;20041;-70
2024/02/10 20:05:28;;;;;;;0.85;0.85;;;;;;;10.32;100.00;98645.59;10374121;28;20088;-71
2024/02/10 20:10:28;;;;;;;1.40;1.05;;;;;;;10.31;100.00;98647.47;10373676;28;20091;-71
2024/02/10 20:15:31;;;;;;;3.10;1.95;;;;;;;10.34;100.00;98646.97;10373403;28;20375;-71
2024/02/10 20:20:36;;;;;;;1.75;1.52;;;;;;;10.30;100.00;98645.81;10374409;28;20073;-70
2024/02/10 20:25:38;;;;;;;2.13;2.03;;;;;;;10.34;100.00;98638.03;10371629;28;20030;-70
2024/02/10 20:30:41;;;;;;;1.13;1.13;;;;;;;10.27;100.00;98635.50;10371766;28;20393;-72
2024/02/10 20:35:41;;;;;;;0.70;0.70;;;;;;;10.23;100.00;98634.34;10373035;28;20038;-72
2024/02/10 20:40:41;;;;;;;0.82;0.82;;;;;;;10.19;100.00;98641.34;10372515;28;20478;-71
2024/02/10 20:45:43;;;;;;;0.85;0.85;;;;;;;10.11;100.00;98634.44;10371751;28;20045;-73
2024/02/10 20:50:46;;;;;;;0.65;0.65;;;;;;;10.06;100.00;98637.09;10378231;28;20080;-70
2024/02/10 20:55:47;;;;;;;1.38;1.38;;;;;;;10.03;100.00;98626.78;10382908;28;20459;-71
2024/02/10 21:00:49;;;;;;;2.38;2.00;;;;;;;9.99;100.00;98621.06;10381001;28;20041;-73
2024/02/10 21:05:51;;;;;;;2.05;1.95;;;;;;;9.99;100.00;98626.47;10380179;28;20045;-71
2024/02/10 21:10:51;;;;;;;1.70;1.70;;;;;;;9.95;100.00;98617.19;10380205;28;20085;-72
2024/02/10 21:15:54;;;;;;;0.80;0.80;;;;;;;9.91;100.00;98612.56;10378811;28;20033;-69
2024/02/10 21:20:54;;;;;;;1.00;1.00;;;;;;;9.90;100.00;98611.75;10381500;28;20104;-71
2024/02/10 21:25:55;;;;;;;0.88;0.88;;;;;;;9.87;100.00;98606.03;10383097;28;20034;-71
2024/02/10 21:30:59;;;;;;;0.98;0.98;;;;;;;9.85;100.00;98617.06;10381829;28;20200;-71
2024/02/10 21:36:00;;;;;;;1.33;1.27;;;;;;;9.86;100.00;98609.78;10382878;28;20041;-72
2024/02/10 21:41:00;;;;;;;5.05;4.70;;;;;;;9.87;100.00;98608.72;10414708;28;20045;-70
2024/02/10 21:46:00;;;;;;;2.63;2.45;;;;;;;9.87;100.00;98601.44;10381873;28;20486;-71
2024/02/10 21:51:01;;;;;;;0.55;0.55;;;;;;;9.90;100.00;98606.34;10383235;28;20038;-71
2024/02/10 21:56:01;;;;;;;5.30;4.93;;;;;;;9.86;100.00;98593.56;10382834;28;20069;-72
2024/02/10 22:01:05;;;;;;;0.65;0.65;;;;;;;9.86;100.00;98597.09;10378473;28;20121;-71
2024/02/10 22:06:06;;;;;;;1.95;1.40;;;;;;;9.85;100.00;98597.34;10378928;28;20037;-71
2024/02/10 22:11:06;;;;;;;0.82;0.82;;;;;;;9.80;100.00;98587.28;10377746;28;20037;-70
2024/02/10 22:16:07;;;;;;;0.75;0.75;;;;;;;9.76;100.00;98594.22;10381396;28;20029;-72
2024/02/10 22:21:09;;;;;;;0.68;0.68;;;;;;;9.78;100.00;98589.41;10415665;28;20088;-74
2024/02/10 22:26:09;;;;;;;2.22;2.08;;;;;;;9.81;100.00;98578.09;10381182;28;20041;-71
2024/02/10 22:31:13;;;;;;;1.08;1.08;;;;;;;9.81;100.00;98570.00;10380026;28;20100;-72
2024/02/10 22:36:15;;;;;;;2.00;1.90;;;;;;;9.83;100.00;98575.13;10379852;28;20073;-73
2024/02/10 22:41:16;;;;;;;2.45;2.35;;;;;;;9.91;100.00;98578.22;10361792;28;20026;-69
2024/02/10 22:46:17;;;;;;;0.68;0.68;;;;;;;9.90;100.00;98581.19;10378555;28;20445;-71
2024/02/10 22:51:17;;;;;;;1.50;1.50;;;;;;;9.94;100.00;98579.63;10379677;28;20084;-72
2024/02/10 22:56:18;;;;;;;1.00;1.00;;;;;;;10.00;100.00;98584.84;10379075;28;20173;-68
2024/02/10 23:01:24;;;;;;;0.93;0.93;;;;;;;10.05;100.00;98586.81;10409876;28;20095;-71
2024/02/10 23:06:31;;;;;;;2.35;1.95;;;;;;;10.08;100.00;98582.75;10378697;28;20113;-71
2024/02/10 23:11:31;;;;;;;6.30;2.47;;;;;;;10.09;100.00;98576.31;10377722;28;20045;-72
2024/02/10 23:16:32;;;;;;;3.30;3.10;;;;;;;10.16;100.00;98571.53;10410260;28;20061;-71
2024/02/10 23:21:32;;;;;;;1.75;1.67;;;;;;;10.16;100.00;98583.16;10394187;28;20049;-70
2024/02/10 23:26:33;;;;;;;5.60;2.78;;;;;;;10.24;100.00;98569.19;10376154;28;20445;-70
2024/02/10 23:31:34;;;;;;;1.90;1.83;;;;;;;10.26;100.00;98568.97;10377197;28;20476;-72